D/T METAR WX W/DIR W/SPE G/SPE TEMP DEWP
25/02/20 14:00 EICK 251400Z 28023G52KT 8000 -SHRAGS FEW008 BKN018CB 04/01 Q1001 NOSIG -SHRA -SHGS W (280°) 26.5mph 59.8mph 4°C 1°C
25/02/20 13:30 EICK 251330Z 27020KT 9999 FEW018CB 03/01 Q1000 NOSIG W (270°) 23.0mph 3°C 1°C
25/02/20 13:00 EICK 251300Z 27022KT 8000 -SHRAGS SCT007 BKN018CB 02/00 Q1001 NOSIG -SHRA -SHGS W (270°) 25.3mph 2°C 0°C
25/02/20 12:30 EICK 251230Z 27018KT 9999 FEW018CB SCT023 05/00 Q1000 NOSIG W (270°) 20.7mph 5°C 0°C
25/02/20 12:00 EICK 251200Z 28015KT 9999 FEW018CB SCT023 03/00 Q1001 NOSIG W (280°) 17.3mph 3°C 0°C
25/02/20 11:30 EICK 251130Z 28020KT 9999 SCT018CB BKN021 03/01 Q1001 NOSIG W (280°) 23.0mph 3°C 1°C
25/02/20 11:00 EICK 251100Z 27017G28KT 9999 -SHRA FEW010 SCT018CB BKN022 03/01 Q1001 NOSIG -SHRA W (270°) 19.6mph 32.2mph 3°C 1°C
25/02/20 10:30 EICK 251030Z 28015KT 9999 SCT018CB BKN023 03/00 Q1001 NOSIG W (280°) 17.3mph 3°C 0°C
25/02/20 10:00 EICK 251000Z 27019G39KT 9999 SCT018CB BKN022 03/01 Q1001 NOSIG W (270°) 21.9mph 44.9mph 3°C 1°C
25/02/20 09:30 EICK 250930Z 25016KT 9999 SCT018CB BKN022 03/01 Q1000 NOSIG WSW (250°) 18.4mph 3°C 1°C
25/02/20 09:00 EICK 250900Z 23014KT 9999 SCT018CB BKN021 02/01 Q1001 NOSIG SW (230°) 16.1mph 2°C 1°C
25/02/20 08:30 EICK 250830Z 27010KT 9999 SCT018CB BKN021 03/01 Q1002 NOSIG W (270°) 11.5mph 3°C 1°C
25/02/20 08:00 EICK 250800Z 24010KT 9999 FEW018CB SCT021 03/00 Q1002 NOSIG WSW (240°) 11.5mph 3°C 0°C
25/02/20 07:30 EICK 250730Z 25010KT 9999 FEW018CB 02/00 Q1002 NOSIG WSW (250°) 11.5mph 2°C 0°C
25/02/20 07:00 EICK 250700Z 23007KT 9999 FEW013 FEW018CB 01/00 Q1003 NOSIG SW (230°) 8.1mph 1°C 0°C
25/02/20 06:30 EICK 250630Z 25010KT 9999 FEW013 SCT018CB 02/01 Q1003 NOSIG WSW (250°) 11.5mph 2°C 1°C
25/02/20 06:00 EICK 250600Z 26012G28KT 9999 -SHRA FEW013 SCT018CB BKN120 03/01 Q1004 NOSIG -SHRA W (260°) 13.8mph 32.2mph 3°C 1°C
25/02/20 05:30 EICK 250530Z 28008KT 9999 FEW013 SCT018CB BKN120 03/01 Q1003 NOSIG W (280°) 9.2mph 3°C 1°C
25/02/20 05:00 EICK 250500Z 25013G27KT 9999 FEW018CB SCT022 BKN100 03/01 Q1003 NOSIG WSW (250°) 15.0mph 31.1mph 3°C 1°C
25/02/20 04:30 EICK 250430Z 24008KT 9999 FEW018CB 02/01 Q1003 NOSIG WSW (240°) 9.2mph 2°C 1°C
25/02/20 04:00 EICK 250400Z 25009KT 9999 FEW018CB 03/01 Q1004 NOSIG WSW (250°) 10.4mph 3°C 1°C
25/02/20 03:30 EICK 250330Z 24008KT 9999 FEW018CB 02/01 Q1005 NOSIG WSW (240°) 9.2mph 2°C 1°C
25/02/20 03:00 EICK 250300Z 24008KT 9999 FEW018CB 02/01 Q1005 NOSIG WSW (240°) 9.2mph 2°C 1°C
25/02/20 02:30 EICK 250230Z 24007KT 9999 FEW018CB 03/01 Q1005 NOSIG WSW (240°) 8.1mph 3°C 1°C
25/02/20 02:00 EICK 250200Z 26011KT 9999 FEW018CB 04/01 Q1006 NOSIG W (260°) 12.7mph 4°C 1°C
25/02/20 01:30 EICK 250130Z 25011KT 9999 FEW018CB SCT025 04/02 Q1006 NOSIG WSW (250°) 12.7mph 4°C 2°C
25/02/20 01:00 EICK 250100Z 25012KT 9999 FEW018CB BKN025 04/03 Q1006 NOSIG WSW (250°) 13.8mph 4°C 3°C
25/02/20 00:30 EICK 250030Z 24013KT 9999 FEW018CB SCT030 BKN090 04/02 Q1006 NOSIG WSW (240°) 15.0mph 4°C 2°C
25/02/20 00:00 EICK 250000Z 24010KT 9999 FEW018CB SCT050 BKN100 04/02 Q1006 NOSIG WSW (240°) 11.5mph 4°C 2°C
24/02/20 23:30 EICK 242330Z 23010KT 9999 FEW020 BKN120 03/01 Q1007 NOSIG SW (230°) 11.5mph 3°C 1°C
24/02/20 23:00 EICK 242300Z 23008KT 9999 FEW025 02/01 Q1007 NOSIG SW (230°) 9.2mph 2°C 1°C
24/02/20 22:30 EICK 242230Z 23010KT 9999 FEW018CB 02/01 Q1007 NOSIG SW (230°) 11.5mph 2°C 1°C
24/02/20 22:00 EICK 242200Z 23008KT 9999 FEW018CB 03/01 Q1008 NOSIG SW (230°) 9.2mph 3°C 1°C
24/02/20 21:30 EICK 242130Z 25008KT 9999 FEW018CB SCT025 04/02 Q1008 NOSIG WSW (250°) 9.2mph 4°C 2°C
24/02/20 21:00 EICK 242100Z 26012KT 9999 FEW018CB BKN025 04/02 Q1008 NOSIG W (260°) 13.8mph 4°C 2°C
24/02/20 20:30 EICK 242030Z 25010KT 9999 FEW018CB SCT050 04/01 Q1009 NOSIG WSW (250°) 11.5mph 4°C 1°C
24/02/20 20:00 EICK 242000Z 25009KT 9999 FEW017 04/01 Q1008 NOSIG WSW (250°) 10.4mph 4°C 1°C
24/02/20 19:30 EICK 241930Z 26010KT 9999 FEW025 05/01 Q1009 NOSIG W (260°) 11.5mph 5°C 1°C
24/02/20 19:00 EICK 241900Z 27009KT 9999 FEW017CB 05/01 Q1009 NOSIG W (270°) 10.4mph 5°C 1°C
24/02/20 18:30 EICK 241830Z 28009KT 9999 FEW017CB 06/03 Q1009 NOSIG W (280°) 10.4mph 6°C 3°C
24/02/20 18:00 EICK 241800Z 29014KT 9999 SCT017CB 06/03 Q1008 NOSIG WNW (290°) 16.1mph 6°C 3°C
24/02/20 17:30 EICK 241730Z 28014KT 9999 -SHRA BKN017CB SCT250 07/04 Q1008 NOSIG -SHRA W (280°) 16.1mph 7°C 4°C
24/02/20 17:00 EICK 241700Z 29015KT 9999 BKN017CB SCT250 07/04 Q1008 NOSIG WNW (290°) 17.3mph 7°C 4°C
24/02/20 16:30 EICK 241630Z 29013KT 9999 SCT017CB SCT250 08/04 Q1008 NOSIG WNW (290°) 15.0mph 8°C 4°C
24/02/20 16:00 EICK 241600Z 29017KT 9999 BKN017CB SCT250 08/03 Q1007 NOSIG WNW (290°) 19.6mph 8°C 3°C
24/02/20 15:30 EICK 241530Z 29017KT 9999 SCT017CB SCT250 09/03 Q1007 NOSIG WNW (290°) 19.6mph 9°C 3°C
24/02/20 15:00 EICK 241500Z 28020KT 9999 FEW017CB SCT250 09/03 Q1007 NOSIG W (280°) 23.0mph 9°C 3°C
24/02/20 14:30 EICK 241430Z 28021KT 9999 SCT017CB BKN250 09/04 Q1006 NOSIG W (280°) 24.2mph 9°C 4°C